createdAt,value
2023-02-16T00:21:26.422Z,17.83
2023-02-16T00:53:20.644Z,13.30
2023-02-16T01:12:22.331Z,11.55
2023-02-16T01:23:03.745Z,12.23
2023-02-16T01:28:54.143Z,10.65
2023-02-16T01:30:16.413Z,9.85
2023-02-16T01:33:09.233Z,10.93
2023-02-16T01:35:46.885Z,11.95
2023-02-16T01:43:27.452Z,10.82
2023-02-16T01:49:43.353Z,10.07
2023-02-16T01:52:37.131Z,10.52
2023-02-16T02:17:59.159Z,11.52
2023-02-16T07:45:13.803Z,17.83
2023-02-16T07:47:52.735Z,18.27
2023-02-16T07:50:27.482Z,15.68
2023-02-16T07:52:55.149Z,18.00
2023-02-16T07:55:33.731Z,16.50
2023-02-16T07:58:30.068Z,23.60
2023-02-16T08:02:20.596Z,22.73
2023-02-16T08:04:54.399Z,27.85
2023-02-16T08:07:35.514Z,24.60
2023-02-16T08:10:13.141Z,28.02
2023-02-16T08:12:40.480Z,25.60
2023-02-16T08:15:11.904Z,24.85
2023-02-16T08:17:55.761Z,25.95
2023-02-16T08:21:01.090Z,20.60
2023-02-16T08:24:20.097Z,27.58
2023-02-16T08:31:52.688Z,41.13
2023-02-16T08:35:20.535Z,32.63
2023-02-16T08:38:19.606Z,40.97
2023-02-16T08:41:00.260Z,39.08
2023-02-16T08:43:27.520Z,38.60
2023-02-16T08:46:03.608Z,32.63
2023-02-16T08:48:36.566Z,40.28
2023-02-16T08:51:06.848Z,38.58
2023-02-16T08:53:36.419Z,32.83
2023-02-16T08:56:17.684Z,30.88
2023-02-16T08:58:48.772Z,35.17
2023-02-16T09:01:24.103Z,31.15
2023-02-16T09:54:47.863Z,34.80
2023-02-16T09:57:43.961Z,36.95
2023-02-16T10:00:29.625Z,31.17
2023-02-16T10:03:27.787Z,32.53
2023-02-16T10:06:21.069Z,30.90
2023-02-16T10:09:08.794Z,29.58
2023-02-16T10:12:10.400Z,29.17
2023-02-16T10:14:52.005Z,35.72
2023-02-16T10:17:30.820Z,30.80
2023-02-16T10:20:20.570Z,28.23
2023-02-16T10:23:15.179Z,25.83
2023-02-16T10:26:04.853Z,28.90
2023-02-16T10:28:52.291Z,24.73
2023-02-16T10:31:34.209Z,27.27
2023-02-16T10:34:05.625Z,25.83
2023-02-16T10:46:40.694Z,31.25
2023-02-16T10:49:24.608Z,34.78
2023-02-16T10:52:06.335Z,35.55
2023-02-16T10:54:50.880Z,37.88
2023-02-16T10:57:43.201Z,44.70
2023-02-16T11:00:29.190Z,42.25
2023-02-16T11:03:05.455Z,42.75
2023-02-16T11:05:54.809Z,37.45
2023-02-16T11:09:03.079Z,35.75
2023-02-16T11:11:56.884Z,38.38
2023-02-16T11:15:10.873Z,38.03
2023-02-16T11:21:59.046Z,36.92
2023-02-16T11:24:39.971Z,33.40
2023-02-16T11:27:50.164Z,34.65
2023-02-16T11:30:29.584Z,40.58
2023-02-16T11:33:07.156Z,38.08
2023-02-16T11:51:59.988Z,29.08
2023-02-16T11:54:27.900Z,29.38
2023-02-16T11:57:11.240Z,30.58
2023-02-16T11:59:39.918Z,35.65
2023-02-16T12:02:40.737Z,37.13
2023-02-16T12:05:24.480Z,28.88
2023-02-16T12:08:14.777Z,35.40
2023-02-16T12:11:45.238Z,32.15
2023-02-16T12:14:36.512Z,31.67
2023-02-16T12:21:40.575Z,31.60
2023-02-16T12:24:48.729Z,36.90
2023-02-16T12:28:00.741Z,33.90
2023-02-16T12:30:52.997Z,36.17
2023-02-16T12:33:49.922Z,30.30
2023-02-16T12:36:28.996Z,30.45
2023-02-16T12:39:37.770Z,27.00
2023-02-16T12:43:18.566Z,35.83
2023-02-16T12:45:47.608Z,36.95
2023-02-16T12:48:45.338Z,33.15
2023-02-16T12:51:19.465Z,44.25
2023-02-16T12:55:53.560Z,43.03
2023-02-16T12:58:02.767Z,38.92
2023-02-16T13:05:44.068Z,35.58
2023-02-16T13:08:39.322Z,29.67
2023-02-16T13:11:16.876Z,31.13
2023-02-16T13:13:46.812Z,26.13
2023-02-16T13:16:44.370Z,28.17
2023-02-16T13:19:21.695Z,28.73
2023-02-16T13:22:15.944Z,27.45
2023-02-16T13:25:16.357Z,27.73
2023-02-16T13:28:23.964Z,27.65
2023-02-16T13:31:04.870Z,25.35
2023-02-16T13:34:08.599Z,28.02
2023-02-16T13:36:56.980Z,30.17
2023-02-16T13:39:47.180Z,26.40
2023-02-16T13:43:30.732Z,21.65
2023-02-16T13:46:35.551Z,21.02
2023-02-16T13:51:56.121Z,23.00
2023-02-16T13:54:34.527Z,25.23
2023-02-16T13:57:04.668Z,25.65
2023-02-16T13:59:36.701Z,26.48
2023-02-16T14:02:22.784Z,23.80
2023-02-16T14:04:58.870Z,22.70
2023-02-16T14:07:35.987Z,23.08
2023-02-16T14:10:05.379Z,21.02
2023-02-16T14:12:39.274Z,19.33
2023-02-16T14:15:28.358Z,21.00
2023-02-16T14:17:58.952Z,20.85
2023-02-16T14:20:31.817Z,18.65
2023-02-16T14:23:27.610Z,19.63
2023-02-16T14:26:03.297Z,15.77
2023-02-16T14:28:33.814Z,14.98
2023-02-16T14:35:38.495Z,13.88
2023-02-16T14:38:24.964Z,16.35
2023-02-16T14:41:06.840Z,19.45
2023-02-16T14:43:40.471Z,20.42
2023-02-16T14:46:45.556Z,16.75
2023-02-16T14:49:49.613Z,20.08
2023-02-16T14:53:01.896Z,21.80
2023-02-16T15:14:43.013Z,23.60
2023-02-16T15:17:27.590Z,20.85
2023-02-16T15:25:06.600Z,18.00
2023-02-16T15:28:12.699Z,14.45
2023-02-16T15:30:41.954Z,17.83
2023-02-16T15:33:48.358Z,15.70
2023-02-16T15:36:37.501Z,18.08
2023-02-16T15:39:09.788Z,20.40
2023-02-16T15:41:46.991Z,18.38
2023-02-16T15:44:41.493Z,20.65
2023-02-16T15:47:27.218Z,18.98
2023-02-16T15:49:58.295Z,18.20
2023-02-16T15:52:35.936Z,17.35
2023-02-16T16:03:01.416Z,14.32
2023-02-16T16:06:00.690Z,15.82
2023-02-16T16:08:31.189Z,13.50
2023-02-16T16:11:10.330Z,14.60
2023-02-16T16:13:38.392Z,17.52
2023-02-16T16:16:43.815Z,15.95
2023-02-16T16:22:44.626Z,14.07
2023-02-16T16:25:37.065Z,11.23
2023-02-16T16:28:07.764Z,15.13
2023-02-16T16:40:21.991Z,12.88
2023-02-16T16:43:09.265Z,17.23
2023-02-16T16:46:04.455Z,19.33
2023-02-16T16:48:39.419Z,19.50
2023-02-16T16:51:23.125Z,22.13
2023-02-16T16:54:07.638Z,22.05
2023-02-16T16:57:38.054Z,24.05
2023-02-16T17:00:14.615Z,22.95
2023-02-16T17:02:41.733Z,24.23
2023-02-16T17:05:08.907Z,25.42
2023-02-16T17:15:37.240Z,21.05
2023-02-16T17:18:06.048Z,22.85
2023-02-16T17:20:33.327Z,24.35
2023-02-16T17:23:09.190Z,25.65
2023-02-16T17:25:38.246Z,18.15
2023-02-16T17:28:22.652Z,22.15
2023-02-16T17:31:00.635Z,17.48
2023-02-16T17:34:07.268Z,19.05
2023-02-16T17:36:47.239Z,20.38
2023-02-16T17:39:22.250Z,19.13
2023-02-16T17:42:02.095Z,24.15
2023-02-16T17:44:36.873Z,22.27
2023-02-16T17:47:04.551Z,24.08
2023-02-16T17:49:31.650Z,22.90
2023-02-16T17:52:00.979Z,21.60
2023-02-16T17:54:28.400Z,22.15
2023-02-16T17:57:05.204Z,23.25
2023-02-16T17:59:46.809Z,23.02
2023-02-16T18:02:14.144Z,21.42
2023-02-16T18:04:41.435Z,29.33
2023-02-16T18:07:16.185Z,21.92
2023-02-16T18:09:43.275Z,25.73
2023-02-16T18:12:10.327Z,25.27
2023-02-16T18:14:37.588Z,23.05
2023-02-16T18:17:04.938Z,20.65
2023-02-16T18:19:32.074Z,24.15
2023-02-16T18:21:59.883Z,24.48
2023-02-16T18:24:30.217Z,27.70
2023-02-16T18:27:01.885Z,22.50
2023-02-16T18:29:32.256Z,22.52
2023-02-16T18:32:05.915Z,27.75
2023-02-16T18:34:35.039Z,21.23
2023-02-16T18:37:05.522Z,23.25
2023-02-16T18:39:33.018Z,20.92
2023-02-16T18:42:00.294Z,24.67
2023-02-16T18:44:29.917Z,25.75
2023-02-16T18:50:22.963Z,29.17
2023-02-16T18:55:59.162Z,30.95
2023-02-16T18:56:53.488Z,27.92
2023-02-16T18:59:42.241Z,30.08
2023-02-16T19:06:39.644Z,27.48
2023-02-16T19:09:07.024Z,24.23
2023-02-16T19:11:44.500Z,31.90
2023-02-16T19:14:12.456Z,34.15
2023-02-16T19:16:42.654Z,31.08
2023-02-16T19:19:15.386Z,30.70
2023-02-16T19:21:53.594Z,31.98
2023-02-16T19:24:41.095Z,31.25
2023-02-16T19:27:08.320Z,31.85
2023-02-16T19:29:35.432Z,28.70
2023-02-16T19:32:02.473Z,26.08
2023-02-16T19:34:29.615Z,32.15
2023-02-16T19:37:15.285Z,30.17
2023-02-16T19:40:00.839Z,37.03
2023-02-16T19:46:16.377Z,32.70
2023-02-16T19:51:39.349Z,26.98
2023-02-16T19:54:06.581Z,31.67
2023-02-16T19:57:00.121Z,31.58
2023-02-16T19:59:27.537Z,30.45
2023-02-16T20:01:54.661Z,33.42
2023-02-16T20:04:24.865Z,31.50
2023-02-16T20:06:54.588Z,27.38
2023-02-16T20:09:22.581Z,30.77
2023-02-16T20:11:50.493Z,29.15
2023-02-16T20:14:17.942Z,27.13
2023-02-16T20:16:48.850Z,25.70
2023-02-16T20:19:50.249Z,25.60
2023-02-16T20:22:20.323Z,29.42
2023-02-16T20:24:47.447Z,23.95
2023-02-16T20:27:14.806Z,24.05
2023-02-16T20:29:53.334Z,25.10
2023-02-16T20:32:24.890Z,26.25
2023-02-16T20:34:54.015Z,24.83
2023-02-16T20:37:28.014Z,30.23
2023-02-16T20:40:04.393Z,25.20
2023-02-16T20:42:31.404Z,25.20
2023-02-16T20:45:22.490Z,24.45
2023-02-16T20:47:52.794Z,23.50
2023-02-16T20:50:20.143Z,22.02
2023-02-16T20:52:52.353Z,21.17
2023-02-16T20:58:07.174Z,20.58
2023-02-16T21:00:45.205Z,23.60
2023-02-16T21:03:38.447Z,25.00
2023-02-16T21:06:23.183Z,27.50
2023-02-16T21:08:50.967Z,24.90
2023-02-16T21:12:51.099Z,24.42
2023-02-16T21:22:03.270Z,23.83
2023-02-16T21:24:48.337Z,24.33
2023-02-16T21:27:39.192Z,20.13
2023-02-16T21:30:44.803Z,20.70
2023-02-16T21:37:12.207Z,22.80
2023-02-16T21:53:57.821Z,27.50
2023-02-16T21:57:08.187Z,22.48
2023-02-16T22:04:34.838Z,23.55
2023-02-16T22:07:07.848Z,26.15
2023-02-16T22:09:34.960Z,27.35
2023-02-16T22:12:02.229Z,27.80
2023-02-16T22:14:29.277Z,25.70
2023-02-16T22:16:56.537Z,24.25
2023-02-16T22:20:01.611Z,31.08
2023-02-16T22:27:07.607Z,30.45
2023-02-16T22:35:07.361Z,31.80
2023-02-16T22:42:17.002Z,27.98
2023-02-16T22:44:46.677Z,28.58
2023-02-16T22:48:08.905Z,25.73
2023-02-16T22:51:01.331Z,24.63
2023-02-16T22:53:27.103Z,24.10
2023-02-16T22:56:29.507Z,23.17
2023-02-16T22:58:58.975Z,21.52
2023-02-16T23:01:42.934Z,21.75
2023-02-16T23:04:17.577Z,20.65
2023-02-16T23:06:45.400Z,20.50
2023-02-16T23:09:23.197Z,19.50
2023-02-16T23:11:52.145Z,18.25
2023-02-16T23:14:20.891Z,17.73
2023-02-16T23:17:06.475Z,18.45
2023-02-16T23:19:36.611Z,18.58
2023-02-16T23:22:03.657Z,16.45
2023-02-16T23:24:31.815Z,17.15
2023-02-16T23:27:26.563Z,16.13
2023-02-16T23:29:56.935Z,18.85
2023-02-16T23:32:59.453Z,16.80
2023-02-16T23:35:51.703Z,19.35
2023-02-16T23:38:19.525Z,21.42
2023-02-16T23:41:10.098Z,17.52
2023-02-16T23:43:43.912Z,18.00
2023-02-16T23:46:12.291Z,20.27
2023-02-16T23:48:39.525Z,21.17
2023-02-16T23:51:11.999Z,19.75
2023-02-16T23:53:41.929Z,21.10
2023-02-16T23:56:23.012Z,20.17
